Terminal Aerodrome Forecast
Issued by NWS

Home | Current Version | Previous Version | Text Only | Print | Product List | Glossary Off
Versions: 1 2 3 4 5 6 7 8 9 10 11 12 13 14 15 16 17 18 19 20 21 22 23 24 25 26 27 28 29 30

000
FTUS45 KGGW 251700
TAFGDV
TAF
KGDV 251720Z 2518/2618 18009KT P6SM FEW027 SCT090
     FM252100 21009KT P6SM FEW015 BKN026 BKN060
     FM260000 31014KT 5SM -SHRA BKN020 BKN035
     FM260600 VRB04KT P6SM VCSH BKN035 BKN040
     FM260800 VRB03KT P6SM FEW045 SCT140
      AMD LTD TO CLD VIS AND WIND=

USA.gov is the U.S. government's official web portal to all federal, state and local government web resources and services.